sensor_id;sensor_type;location;lat;lon;timestamp;P1;durP1;ratioP1;P2;durP2;ratioP2
17482;SDS011;8858;52.308;20.994;2022-10-22T00:02:25;22.67;;;18.03;;
17482;SDS011;8858;52.308;20.994;2022-10-22T00:04:54;23.80;;;18.53;;
17482;SDS011;8858;52.308;20.994;2022-10-22T00:07:23;20.60;;;18.17;;
17482;SDS011;8858;52.308;20.994;2022-10-22T00:09:54;21.23;;;18.43;;
17482;SDS011;8858;52.308;20.994;2022-10-22T00:12:23;20.33;;;18.13;;
17482;SDS011;8858;52.308;20.994;2022-10-22T00:14:53;22.87;;;18.73;;
17482;SDS011;8858;52.308;20.994;2022-10-22T00:17:23;24.23;;;18.40;;
17482;SDS011;8858;52.308;20.994;2022-10-22T00:19:51;21.17;;;17.33;;
17482;SDS011;8858;52.308;20.994;2022-10-22T00:22:20;23.00;;;18.13;;
17482;SDS011;8858;52.308;20.994;2022-10-22T00:24:51;26.10;;;18.77;;
17482;SDS011;8858;52.308;20.994;2022-10-22T00:27:23;23.40;;;18.73;;
17482;SDS011;8858;52.308;20.994;2022-10-22T00:29:52;20.30;;;17.13;;
17482;SDS011;8858;52.308;20.994;2022-10-22T00:32:21;21.97;;;18.43;;
17482;SDS011;8858;52.308;20.994;2022-10-22T00:34:50;22.10;;;17.40;;
17482;SDS011;8858;52.308;20.994;2022-10-22T00:37:19;21.77;;;18.30;;
17482;SDS011;8858;52.308;20.994;2022-10-22T00:39:49;22.10;;;17.93;;
17482;SDS011;8858;52.308;20.994;2022-10-22T00:42:19;23.60;;;19.00;;
17482;SDS011;8858;52.308;20.994;2022-10-22T00:45:05;25.77;;;18.17;;
17482;SDS011;8858;52.308;20.994;2022-10-22T00:47:43;24.57;;;18.80;;
17482;SDS011;8858;52.308;20.994;2022-10-22T00:50:16;21.50;;;17.90;;
17482;SDS011;8858;52.308;20.994;2022-10-22T00:52:48;22.60;;;19.43;;
17482;SDS011;8858;52.308;20.994;2022-10-22T00:55:18;25.20;;;19.57;;
17482;SDS011;8858;52.308;20.994;2022-10-22T00:57:51;24.53;;;19.10;;
17482;SDS011;8858;52.308;20.994;2022-10-22T01:00:26;21.30;;;19.03;;
17482;SDS011;8858;52.308;20.994;2022-10-22T01:02:57;25.73;;;20.30;;
17482;SDS011;8858;52.308;20.994;2022-10-22T01:05:32;24.13;;;20.33;;
17482;SDS011;8858;52.308;20.994;2022-10-22T01:08:12;23.03;;;20.53;;
17482;SDS011;8858;52.308;20.994;2022-10-22T01:10:52;25.07;;;20.37;;
17482;SDS011;8858;52.308;20.994;2022-10-22T01:13:34;25.27;;;20.50;;
17482;SDS011;8858;52.308;20.994;2022-10-22T01:16:16;25.80;;;20.77;;
17482;SDS011;8858;52.308;20.994;2022-10-22T01:18:51;23.90;;;19.40;;
17482;SDS011;8858;52.308;20.994;2022-10-22T01:21:29;25.77;;;19.67;;
17482;SDS011;8858;52.308;20.994;2022-10-22T01:24:07;23.50;;;19.03;;
17482;SDS011;8858;52.308;20.994;2022-10-22T01:27:03;24.10;;;19.93;;
17482;SDS011;8858;52.308;20.994;2022-10-22T01:29:44;22.53;;;18.67;;
17482;SDS011;8858;52.308;20.994;2022-10-22T01:32:20;21.10;;;18.83;;
17482;SDS011;8858;52.308;20.994;2022-10-22T01:34:52;22.60;;;19.77;;
17482;SDS011;8858;52.308;20.994;2022-10-22T01:37:28;23.47;;;20.23;;
17482;SDS011;8858;52.308;20.994;2022-10-22T01:40:01;21.80;;;19.43;;
17482;SDS011;8858;52.308;20.994;2022-10-22T01:42:32;24.80;;;20.47;;
17482;SDS011;8858;52.308;20.994;2022-10-22T01:45:04;28.57;;;20.57;;
17482;SDS011;8858;52.308;20.994;2022-10-22T01:47:42;25.30;;;20.27;;
17482;SDS011;8858;52.308;20.994;2022-10-22T01:50:28;25.80;;;20.50;;
17482;SDS011;8858;52.308;20.994;2022-10-22T01:53:14;23.00;;;19.17;;
17482;SDS011;8858;52.308;20.994;2022-10-22T01:55:54;25.87;;;19.77;;
17482;SDS011;8858;52.308;20.994;2022-10-22T01:58:34;25.40;;;19.17;;
17482;SDS011;8858;52.308;20.994;2022-10-22T02:01:17;21.30;;;18.13;;
17482;SDS011;8858;52.308;20.994;2022-10-22T02:03:56;21.60;;;18.33;;
17482;SDS011;8858;52.308;20.994;2022-10-22T02:06:30;20.53;;;17.30;;
17482;SDS011;8858;52.308;20.994;2022-10-22T02:09:00;20.67;;;18.23;;
17482;SDS011;8858;52.308;20.994;2022-10-22T02:11:30;21.20;;;17.93;;
17482;SDS011;8858;52.308;20.994;2022-10-22T02:14:00;22.47;;;18.63;;
17482;SDS011;8858;52.308;20.994;2022-10-22T02:16:33;20.70;;;17.73;;
17482;SDS011;8858;52.308;20.994;2022-10-22T02:19:05;21.97;;;18.43;;
17482;SDS011;8858;52.308;20.994;2022-10-22T02:21:44;22.30;;;19.77;;
17482;SDS011;8858;52.308;20.994;2022-10-22T02:24:13;22.03;;;18.33;;
17482;SDS011;8858;52.308;20.994;2022-10-22T02:26:43;21.27;;;18.67;;
17482;SDS011;8858;52.308;20.994;2022-10-22T02:29:21;22.77;;;19.93;;
17482;SDS011;8858;52.308;20.994;2022-10-22T02:31:54;20.47;;;17.90;;
17482;SDS011;8858;52.308;20.994;2022-10-22T02:34:26;21.07;;;18.87;;
17482;SDS011;8858;52.308;20.994;2022-10-22T02:36:58;23.27;;;19.93;;
17482;SDS011;8858;52.308;20.994;2022-10-22T02:39:29;24.37;;;19.80;;
17482;SDS011;8858;52.308;20.994;2022-10-22T02:41:59;20.80;;;18.67;;
17482;SDS011;8858;52.308;20.994;2022-10-22T02:44:29;20.77;;;18.67;;
17482;SDS011;8858;52.308;20.994;2022-10-22T02:46:59;21.37;;;18.87;;
17482;SDS011;8858;52.308;20.994;2022-10-22T02:49:28;22.90;;;18.20;;
17482;SDS011;8858;52.308;20.994;2022-10-22T02:51:57;22.20;;;19.33;;
17482;SDS011;8858;52.308;20.994;2022-10-22T02:54:26;23.23;;;19.30;;
17482;SDS011;8858;52.308;20.994;2022-10-22T02:57:22;21.47;;;19.17;;
17482;SDS011;8858;52.308;20.994;2022-10-22T02:59:50;21.90;;;18.90;;
17482;SDS011;8858;52.308;20.994;2022-10-22T03:02:20;22.70;;;19.57;;
17482;SDS011;8858;52.308;20.994;2022-10-22T03:04:49;22.03;;;19.73;;
17482;SDS011;8858;52.308;20.994;2022-10-22T03:07:18;21.93;;;19.40;;
17482;SDS011;8858;52.308;20.994;2022-10-22T03:09:50;31.33;;;25.37;;
17482;SDS011;8858;52.308;20.994;2022-10-22T03:12:45;24.97;;;20.90;;
17482;SDS011;8858;52.308;20.994;2022-10-22T03:15:13;26.17;;;22.57;;
17482;SDS011;8858;52.308;20.994;2022-10-22T03:17:44;23.57;;;20.93;;
17482;SDS011;8858;52.308;20.994;2022-10-22T03:20:12;24.50;;;20.40;;
17482;SDS011;8858;52.308;20.994;2022-10-22T03:22:40;21.80;;;19.50;;
17482;SDS011;8858;52.308;20.994;2022-10-22T03:25:14;21.77;;;19.37;;
17482;SDS011;8858;52.308;20.994;2022-10-22T03:27:47;22.63;;;20.20;;
17482;SDS011;8858;52.308;20.994;2022-10-22T03:30:16;22.23;;;19.20;;
17482;SDS011;8858;52.308;20.994;2022-10-22T03:32:46;22.10;;;19.73;;
17482;SDS011;8858;52.308;20.994;2022-10-22T03:35:15;21.17;;;18.87;;
17482;SDS011;8858;52.308;20.994;2022-10-22T03:37:44;21.20;;;18.90;;
17482;SDS011;8858;52.308;20.994;2022-10-22T03:40:13;20.50;;;18.27;;
17482;SDS011;8858;52.308;20.994;2022-10-22T03:42:42;20.50;;;18.23;;
17482;SDS011;8858;52.308;20.994;2022-10-22T03:45:10;20.73;;;18.63;;
17482;SDS011;8858;52.308;20.994;2022-10-22T03:47:39;21.07;;;18.87;;
17482;SDS011;8858;52.308;20.994;2022-10-22T03:50:32;20.43;;;18.23;;
17482;SDS011;8858;52.308;20.994;2022-10-22T03:53:00;20.07;;;17.67;;
17482;SDS011;8858;52.308;20.994;2022-10-22T03:55:29;19.80;;;17.87;;
17482;SDS011;8858;52.308;20.994;2022-10-22T03:57:58;19.93;;;17.70;;
17482;SDS011;8858;52.308;20.994;2022-10-22T04:00:27;19.60;;;17.60;;
17482;SDS011;8858;52.308;20.994;2022-10-22T04:02:58;20.57;;;18.07;;
17482;SDS011;8858;52.308;20.994;2022-10-22T04:05:27;19.67;;;17.67;;
17482;SDS011;8858;52.308;20.994;2022-10-22T04:07:57;19.17;;;17.17;;
17482;SDS011;8858;52.308;20.994;2022-10-22T04:10:25;20.73;;;18.67;;
17482;SDS011;8858;52.308;20.994;2022-10-22T04:12:54;19.30;;;17.37;;
17482;SDS011;8858;52.308;20.994;2022-10-22T04:15:26;21.17;;;18.47;;
17482;SDS011;8858;52.308;20.994;2022-10-22T04:17:55;22.67;;;18.53;;
17482;SDS011;8858;52.308;20.994;2022-10-22T04:20:23;20.63;;;18.50;;
17482;SDS011;8858;52.308;20.994;2022-10-22T04:22:52;19.30;;;17.40;;
17482;SDS011;8858;52.308;20.994;2022-10-22T04:25:24;21.57;;;18.80;;
17482;SDS011;8858;52.308;20.994;2022-10-22T04:27:54;20.50;;;18.03;;
17482;SDS011;8858;52.308;20.994;2022-10-22T04:30:23;20.60;;;18.50;;
17482;SDS011;8858;52.308;20.994;2022-10-22T04:32:51;21.43;;;19.13;;
17482;SDS011;8858;52.308;20.994;2022-10-22T04:35:20;21.20;;;18.90;;
17482;SDS011;8858;52.308;20.994;2022-10-22T04:37:55;21.07;;;19.07;;
17482;SDS011;8858;52.308;20.994;2022-10-22T04:40:25;21.00;;;18.80;;
17482;SDS011;8858;52.308;20.994;2022-10-22T04:42:56;20.90;;;18.80;;
17482;SDS011;8858;52.308;20.994;2022-10-22T04:45:24;20.97;;;18.60;;
17482;SDS011;8858;52.308;20.994;2022-10-22T04:47:52;23.20;;;19.57;;
17482;SDS011;8858;52.308;20.994;2022-10-22T04:50:21;20.80;;;18.57;;
17482;SDS011;8858;52.308;20.994;2022-10-22T04:52:51;22.13;;;19.07;;
17482;SDS011;8858;52.308;20.994;2022-10-22T04:55:19;21.63;;;19.43;;
17482;SDS011;8858;52.308;20.994;2022-10-22T04:57:49;22.20;;;19.43;;
17482;SDS011;8858;52.308;20.994;2022-10-22T05:00:18;23.03;;;19.90;;
17482;SDS011;8858;52.308;20.994;2022-10-22T05:02:48;21.70;;;19.17;;
17482;SDS011;8858;52.308;20.994;2022-10-22T05:05:18;22.77;;;19.57;;
17482;SDS011;8858;52.308;20.994;2022-10-22T05:07:47;21.37;;;19.17;;
17482;SDS011;8858;52.308;20.994;2022-10-22T05:10:18;20.90;;;18.23;;
17482;SDS011;8858;52.308;20.994;2022-10-22T05:12:48;20.80;;;18.67;;
17482;SDS011;8858;52.308;20.994;2022-10-22T05:15:17;22.90;;;19.67;;
17482;SDS011;8858;52.308;20.994;2022-10-22T05:17:47;20.60;;;18.27;;
17482;SDS011;8858;52.308;20.994;2022-10-22T05:20:15;23.10;;;20.07;;
17482;SDS011;8858;52.308;20.994;2022-10-22T05:22:43;25.10;;;20.67;;
17482;SDS011;8858;52.308;20.994;2022-10-22T05:25:12;23.00;;;19.60;;
17482;SDS011;8858;52.308;20.994;2022-10-22T05:27:47;23.43;;;20.17;;
17482;SDS011;8858;52.308;20.994;2022-10-22T05:30:17;24.10;;;20.13;;
17482;SDS011;8858;52.308;20.994;2022-10-22T05:32:45;24.37;;;21.13;;
17482;SDS011;8858;52.308;20.994;2022-10-22T05:35:14;22.40;;;20.00;;
17482;SDS011;8858;52.308;20.994;2022-10-22T05:37:42;22.23;;;19.83;;
17482;SDS011;8858;52.308;20.994;2022-10-22T05:40:11;26.37;;;19.67;;
17482;SDS011;8858;52.308;20.994;2022-10-22T05:42:53;23.40;;;20.87;;
17482;SDS011;8858;52.308;20.994;2022-10-22T05:45:22;23.20;;;20.80;;
17482;SDS011;8858;52.308;20.994;2022-10-22T05:47:50;26.80;;;21.03;;
17482;SDS011;8858;52.308;20.994;2022-10-22T05:50:19;23.70;;;21.20;;
17482;SDS011;8858;52.308;20.994;2022-10-22T05:52:47;23.70;;;20.93;;
17482;SDS011;8858;52.308;20.994;2022-10-22T05:55:16;23.27;;;19.93;;
17482;SDS011;8858;52.308;20.994;2022-10-22T05:57:48;24.10;;;20.73;;
17482;SDS011;8858;52.308;20.994;2022-10-22T06:00:22;21.63;;;19.43;;
17482;SDS011;8858;52.308;20.994;2022-10-22T06:02:52;22.27;;;19.87;;
17482;SDS011;8858;52.308;20.994;2022-10-22T06:05:24;24.30;;;20.00;;
17482;SDS011;8858;52.308;20.994;2022-10-22T06:07:52;21.80;;;19.27;;
17482;SDS011;8858;52.308;20.994;2022-10-22T06:10:23;23.50;;;19.50;;
17482;SDS011;8858;52.308;20.994;2022-10-22T06:12:51;24.07;;;19.17;;
17482;SDS011;8858;52.308;20.994;2022-10-22T06:15:24;21.67;;;19.03;;
17482;SDS011;8858;52.308;20.994;2022-10-22T06:17:54;21.53;;;18.83;;
17482;SDS011;8858;52.308;20.994;2022-10-22T06:20:22;22.23;;;19.67;;
17482;SDS011;8858;52.308;20.994;2022-10-22T06:22:51;21.53;;;18.57;;
17482;SDS011;8858;52.308;20.994;2022-10-22T06:25:19;22.30;;;18.50;;
17482;SDS011;8858;52.308;20.994;2022-10-22T06:27:48;20.07;;;17.97;;
17482;SDS011;8858;52.308;20.994;2022-10-22T06:30:20;19.93;;;17.53;;
17482;SDS011;8858;52.308;20.994;2022-10-22T06:32:50;21.40;;;17.70;;
17482;SDS011;8858;52.308;20.994;2022-10-22T06:35:19;20.13;;;18.03;;
17482;SDS011;8858;52.308;20.994;2022-10-22T06:37:47;20.10;;;17.30;;
17482;SDS011;8858;52.308;20.994;2022-10-22T06:40:20;19.07;;;17.07;;
17482;SDS011;8858;52.308;20.994;2022-10-22T06:42:48;22.27;;;17.93;;
17482;SDS011;8858;52.308;20.994;2022-10-22T06:45:17;24.37;;;18.43;;
17482;SDS011;8858;52.308;20.994;2022-10-22T06:47:45;20.53;;;17.83;;
17482;SDS011;8858;52.308;20.994;2022-10-22T06:50:16;21.43;;;18.37;;
17482;SDS011;8858;52.308;20.994;2022-10-22T06:52:44;19.53;;;16.93;;
17482;SDS011;8858;52.308;20.994;2022-10-22T06:55:12;19.53;;;16.83;;
17482;SDS011;8858;52.308;20.994;2022-10-22T06:57:41;19.57;;;17.47;;
17482;SDS011;8858;52.308;20.994;2022-10-22T07:00:10;20.00;;;17.53;;
17482;SDS011;8858;52.308;20.994;2022-10-22T07:02:40;20.00;;;17.40;;
17482;SDS011;8858;52.308;20.994;2022-10-22T07:05:09;21.93;;;17.67;;
17482;SDS011;8858;52.308;20.994;2022-10-22T07:07:39;19.53;;;17.27;;
17482;SDS011;8858;52.308;20.994;2022-10-22T07:10:08;21.53;;;16.93;;
17482;SDS011;8858;52.308;20.994;2022-10-22T07:12:36;20.40;;;17.27;;
17482;SDS011;8858;52.308;20.994;2022-10-22T07:15:05;20.73;;;17.10;;
17482;SDS011;8858;52.308;20.994;2022-10-22T07:17:34;23.00;;;18.03;;
17482;SDS011;8858;52.308;20.994;2022-10-22T07:20:02;19.80;;;17.43;;
17482;SDS011;8858;52.308;20.994;2022-10-22T07:22:31;21.40;;;17.90;;
17482;SDS011;8858;52.308;20.994;2022-10-22T07:25:02;25.67;;;18.13;;
17482;SDS011;8858;52.308;20.994;2022-10-22T07:27:33;19.37;;;17.27;;
17482;SDS011;8858;52.308;20.994;2022-10-22T07:30:01;19.50;;;17.13;;
17482;SDS011;8858;52.308;20.994;2022-10-22T07:32:29;24.27;;;17.57;;
17482;SDS011;8858;52.308;20.994;2022-10-22T07:34:59;21.00;;;18.80;;
17482;SDS011;8858;52.308;20.994;2022-10-22T07:37:28;23.47;;;18.80;;
17482;SDS011;8858;52.308;20.994;2022-10-22T07:40:02;23.63;;;18.83;;
17482;SDS011;8858;52.308;20.994;2022-10-22T07:42:30;25.03;;;19.93;;
17482;SDS011;8858;52.308;20.994;2022-10-22T07:44:58;21.30;;;18.67;;
17482;SDS011;8858;52.308;20.994;2022-10-22T07:47:31;22.60;;;18.43;;
17482;SDS011;8858;52.308;20.994;2022-10-22T07:49:59;23.33;;;19.13;;
17482;SDS011;8858;52.308;20.994;2022-10-22T07:52:31;24.77;;;19.60;;
17482;SDS011;8858;52.308;20.994;2022-10-22T07:55:02;24.07;;;19.23;;
17482;SDS011;8858;52.308;20.994;2022-10-22T07:57:30;22.93;;;19.30;;
17482;SDS011;8858;52.308;20.994;2022-10-22T08:00:00;24.00;;;19.63;;
17482;SDS011;8858;52.308;20.994;2022-10-22T08:02:37;23.70;;;19.47;;
17482;SDS011;8858;52.308;20.994;2022-10-22T08:05:06;22.07;;;18.87;;
17482;SDS011;8858;52.308;20.994;2022-10-22T08:10:33;23.50;;;19.27;;
17482;SDS011;8858;52.308;20.994;2022-10-22T08:13:03;30.83;;;24.70;;
17482;SDS011;8858;52.308;20.994;2022-10-22T08:15:32;24.30;;;20.43;;
17482;SDS011;8858;52.308;20.994;2022-10-22T08:18:00;24.57;;;19.53;;
17482;SDS011;8858;52.308;20.994;2022-10-22T08:20:28;23.60;;;20.53;;
17482;SDS011;8858;52.308;20.994;2022-10-22T08:22:57;25.20;;;20.07;;
17482;SDS011;8858;52.308;20.994;2022-10-22T08:25:28;22.27;;;18.93;;
17482;SDS011;8858;52.308;20.994;2022-10-22T08:27:58;33.97;;;27.80;;
17482;SDS011;8858;52.308;20.994;2022-10-22T08:30:26;23.10;;;19.80;;
17482;SDS011;8858;52.308;20.994;2022-10-22T08:32:55;20.50;;;18.30;;
17482;SDS011;8858;52.308;20.994;2022-10-22T08:35:31;24.10;;;19.03;;
17482;SDS011;8858;52.308;20.994;2022-10-22T08:38:00;22.33;;;18.30;;
17482;SDS011;8858;52.308;20.994;2022-10-22T08:40:29;21.53;;;18.83;;
17482;SDS011;8858;52.308;20.994;2022-10-22T08:43:09;19.73;;;17.63;;
17482;SDS011;8858;52.308;20.994;2022-10-22T08:45:49;21.30;;;19.07;;
17482;SDS011;8858;52.308;20.994;2022-10-22T08:48:31;24.17;;;19.10;;
17482;SDS011;8858;52.308;20.994;2022-10-22T08:51:12;25.63;;;19.23;;
17482;SDS011;8858;52.308;20.994;2022-10-22T08:53:59;23.33;;;19.00;;
17482;SDS011;8858;52.308;20.994;2022-10-22T08:56:43;24.90;;;19.37;;
17482;SDS011;8858;52.308;20.994;2022-10-22T08:59:20;23.57;;;19.57;;
17482;SDS011;8858;52.308;20.994;2022-10-22T09:01:53;23.47;;;20.00;;
17482;SDS011;8858;52.308;20.994;2022-10-22T09:04:23;22.13;;;19.83;;
17482;SDS011;8858;52.308;20.994;2022-10-22T09:06:59;24.97;;;19.03;;
17482;SDS011;8858;52.308;20.994;2022-10-22T09:09:30;25.00;;;19.63;;
17482;SDS011;8858;52.308;20.994;2022-10-22T09:12:04;23.80;;;19.87;;
17482;SDS011;8858;52.308;20.994;2022-10-22T09:14:45;24.87;;;19.27;;
17482;SDS011;8858;52.308;20.994;2022-10-22T09:17:15;38.40;;;29.83;;
17482;SDS011;8858;52.308;20.994;2022-10-22T09:19:55;29.17;;;21.33;;
17482;SDS011;8858;52.308;20.994;2022-10-22T09:22:32;27.20;;;21.03;;
17482;SDS011;8858;52.308;20.994;2022-10-22T09:25:14;24.77;;;20.80;;
17482;SDS011;8858;52.308;20.994;2022-10-22T09:27:48;24.60;;;20.07;;
17482;SDS011;8858;52.308;20.994;2022-10-22T09:30:20;27.43;;;21.30;;
17482;SDS011;8858;52.308;20.994;2022-10-22T09:32:50;26.70;;;20.47;;
17482;SDS011;8858;52.308;20.994;2022-10-22T09:35:27;26.83;;;21.40;;
17482;SDS011;8858;52.308;20.994;2022-10-22T09:38:04;29.43;;;20.73;;
17482;SDS011;8858;52.308;20.994;2022-10-22T09:40:41;30.77;;;22.00;;
17482;SDS011;8858;52.308;20.994;2022-10-22T09:43:13;27.20;;;21.60;;
17482;SDS011;8858;52.308;20.994;2022-10-22T09:45:44;28.77;;;22.23;;
17482;SDS011;8858;52.308;20.994;2022-10-22T09:48:16;30.63;;;21.63;;
17482;SDS011;8858;52.308;20.994;2022-10-22T09:50:47;28.80;;;21.90;;
17482;SDS011;8858;52.308;20.994;2022-10-22T09:53:18;28.13;;;21.27;;
17482;SDS011;8858;52.308;20.994;2022-10-22T09:55:50;30.47;;;22.73;;
17482;SDS011;8858;52.308;20.994;2022-10-22T09:58:21;30.27;;;21.80;;
17482;SDS011;8858;52.308;20.994;2022-10-22T10:00:52;33.10;;;21.33;;
17482;SDS011;8858;52.308;20.994;2022-10-22T10:03:26;34.03;;;23.87;;
17482;SDS011;8858;52.308;20.994;2022-10-22T10:05:59;34.73;;;23.10;;
17482;SDS011;8858;52.308;20.994;2022-10-22T10:08:32;35.50;;;23.23;;
17482;SDS011;8858;52.308;20.994;2022-10-22T10:11:05;41.57;;;25.57;;
17482;SDS011;8858;52.308;20.994;2022-10-22T10:13:45;41.03;;;26.40;;
17482;SDS011;8858;52.308;20.994;2022-10-22T10:16:28;40.47;;;26.30;;
17482;SDS011;8858;52.308;20.994;2022-10-22T10:19:18;43.40;;;25.00;;
17482;SDS011;8858;52.308;20.994;2022-10-22T10:22:09;44.83;;;26.13;;
17482;SDS011;8858;52.308;20.994;2022-10-22T10:24:49;39.43;;;25.60;;
17482;SDS011;8858;52.308;20.994;2022-10-22T10:27:39;45.53;;;27.07;;
17482;SDS011;8858;52.308;20.994;2022-10-22T10:30:12;37.73;;;26.33;;
17482;SDS011;8858;52.308;20.994;2022-10-22T10:33:01;45.37;;;28.37;;
17482;SDS011;8858;52.308;20.994;2022-10-22T10:35:42;43.13;;;28.43;;
17482;SDS011;8858;52.308;20.994;2022-10-22T10:38:19;50.03;;;29.20;;
17482;SDS011;8858;52.308;20.994;2022-10-22T10:41:00;46.93;;;29.03;;
17482;SDS011;8858;52.308;20.994;2022-10-22T10:43:41;44.73;;;27.93;;
17482;SDS011;8858;52.308;20.994;2022-10-22T10:46:27;53.33;;;28.67;;
17482;SDS011;8858;52.308;20.994;2022-10-22T10:49:09;43.73;;;28.83;;
17482;SDS011;8858;52.308;20.994;2022-10-22T10:51:44;43.80;;;27.57;;
17482;SDS011;8858;52.308;20.994;2022-10-22T10:54:31;43.90;;;27.60;;
17482;SDS011;8858;52.308;20.994;2022-10-22T10:57:10;40.47;;;27.50;;
17482;SDS011;8858;52.308;20.994;2022-10-22T10:59:59;33.23;;;26.20;;
17482;SDS011;8858;52.308;20.994;2022-10-22T11:02:52;34.63;;;25.63;;
17482;SDS011;8858;52.308;20.994;2022-10-22T11:05:52;34.00;;;25.93;;
17482;SDS011;8858;52.308;20.994;2022-10-22T11:08:24;34.20;;;26.47;;
17482;SDS011;8858;52.308;20.994;2022-10-22T11:10:56;36.57;;;27.00;;
17482;SDS011;8858;52.308;20.994;2022-10-22T11:13:29;32.70;;;26.73;;
17482;SDS011;8858;52.308;20.994;2022-10-22T11:16:06;40.20;;;27.10;;
17482;SDS011;8858;52.308;20.994;2022-10-22T11:18:42;36.30;;;27.87;;
17482;SDS011;8858;52.308;20.994;2022-10-22T11:21:20;33.93;;;26.53;;
17482;SDS011;8858;52.308;20.994;2022-10-22T11:23:54;34.87;;;26.70;;
17482;SDS011;8858;52.308;20.994;2022-10-22T11:26:31;34.57;;;26.57;;
17482;SDS011;8858;52.308;20.994;2022-10-22T11:29:06;38.30;;;26.50;;
17482;SDS011;8858;52.308;20.994;2022-10-22T11:31:39;38.00;;;27.90;;
17482;SDS011;8858;52.308;20.994;2022-10-22T11:34:10;38.70;;;27.90;;
17482;SDS011;8858;52.308;20.994;2022-10-22T11:37:00;43.50;;;33.03;;
17482;SDS011;8858;52.308;20.994;2022-10-22T11:39:34;46.33;;;33.73;;
17482;SDS011;8858;52.308;20.994;2022-10-22T11:42:08;37.50;;;28.07;;
17482;SDS011;8858;52.308;20.994;2022-10-22T11:44:47;40.40;;;28.97;;
17482;SDS011;8858;52.308;20.994;2022-10-22T11:47:24;40.70;;;29.93;;
17482;SDS011;8858;52.308;20.994;2022-10-22T11:49:56;41.07;;;29.60;;
17482;SDS011;8858;52.308;20.994;2022-10-22T11:52:39;42.67;;;29.57;;
17482;SDS011;8858;52.308;20.994;2022-10-22T11:58:28;36.50;;;28.57;;
17482;SDS011;8858;52.308;20.994;2022-10-22T12:01:16;40.63;;;28.87;;
17482;SDS011;8858;52.308;20.994;2022-10-22T12:03:50;47.70;;;34.33;;
17482;SDS011;8858;52.308;20.994;2022-10-22T12:06:21;43.70;;;30.50;;
17482;SDS011;8858;52.308;20.994;2022-10-22T12:08:59;40.87;;;28.70;;
17482;SDS011;8858;52.308;20.994;2022-10-22T12:11:34;43.20;;;29.03;;
17482;SDS011;8858;52.308;20.994;2022-10-22T12:14:12;40.07;;;28.90;;
17482;SDS011;8858;52.308;20.994;2022-10-22T12:16:45;45.33;;;28.87;;
17482;SDS011;8858;52.308;20.994;2022-10-22T12:19:25;42.03;;;28.77;;
17482;SDS011;8858;52.308;20.994;2022-10-22T12:21:57;43.83;;;29.23;;
17482;SDS011;8858;52.308;20.994;2022-10-22T12:24:31;47.07;;;30.30;;
17482;SDS011;8858;52.308;20.994;2022-10-22T12:27:13;39.10;;;29.03;;
17482;SDS011;8858;52.308;20.994;2022-10-22T12:29:48;43.93;;;29.33;;
17482;SDS011;8858;52.308;20.994;2022-10-22T12:32:20;39.40;;;29.47;;
17482;SDS011;8858;52.308;20.994;2022-10-22T12:34:50;43.00;;;29.23;;
17482;SDS011;8858;52.308;20.994;2022-10-22T12:37:19;43.67;;;30.80;;
17482;SDS011;8858;52.308;20.994;2022-10-22T12:39:50;44.00;;;30.90;;
17482;SDS011;8858;52.308;20.994;2022-10-22T12:42:18;45.53;;;31.30;;
17482;SDS011;8858;52.308;20.994;2022-10-22T12:44:53;46.03;;;30.27;;
17482;SDS011;8858;52.308;20.994;2022-10-22T12:47:22;46.73;;;32.67;;
17482;SDS011;8858;52.308;20.994;2022-10-22T12:49:54;46.40;;;32.20;;
17482;SDS011;8858;52.308;20.994;2022-10-22T12:52:28;47.50;;;30.70;;
17482;SDS011;8858;52.308;20.994;2022-10-22T12:55:03;42.80;;;29.43;;
17482;SDS011;8858;52.308;20.994;2022-10-22T12:57:35;40.47;;;28.20;;
17482;SDS011;8858;52.308;20.994;2022-10-22T13:00:18;38.60;;;27.93;;
17482;SDS011;8858;52.308;20.994;2022-10-22T13:02:49;41.47;;;29.70;;
17482;SDS011;8858;52.308;20.994;2022-10-22T13:05:22;41.93;;;28.50;;
17482;SDS011;8858;52.308;20.994;2022-10-22T13:07:53;43.77;;;28.97;;
17482;SDS011;8858;52.308;20.994;2022-10-22T13:10:32;35.87;;;27.00;;
17482;SDS011;8858;52.308;20.994;2022-10-22T13:13:03;37.27;;;27.83;;
17482;SDS011;8858;52.308;20.994;2022-10-22T13:15:37;41.90;;;30.50;;
17482;SDS011;8858;52.308;20.994;2022-10-22T13:18:14;40.70;;;28.33;;
17482;SDS011;8858;52.308;20.994;2022-10-22T13:20:51;36.97;;;27.63;;
17482;SDS011;8858;52.308;20.994;2022-10-22T13:23:21;38.23;;;26.40;;
17482;SDS011;8858;52.308;20.994;2022-10-22T13:25:57;36.30;;;27.13;;
17482;SDS011;8858;52.308;20.994;2022-10-22T13:28:28;51.23;;;35.60;;
17482;SDS011;8858;52.308;20.994;2022-10-22T13:30:59;37.53;;;26.43;;
17482;SDS011;8858;52.308;20.994;2022-10-22T13:33:31;35.27;;;26.50;;
17482;SDS011;8858;52.308;20.994;2022-10-22T13:36:07;36.83;;;26.67;;
17482;SDS011;8858;52.308;20.994;2022-10-22T13:38:40;35.57;;;26.10;;
17482;SDS011;8858;52.308;20.994;2022-10-22T13:41:20;34.30;;;25.83;;
17482;SDS011;8858;52.308;20.994;2022-10-22T13:43:50;32.50;;;25.90;;
17482;SDS011;8858;52.308;20.994;2022-10-22T13:46:23;36.83;;;26.37;;
17482;SDS011;8858;52.308;20.994;2022-10-22T13:48:53;33.23;;;25.37;;
17482;SDS011;8858;52.308;20.994;2022-10-22T13:51:26;34.33;;;27.10;;
17482;SDS011;8858;52.308;20.994;2022-10-22T13:54:01;38.80;;;25.90;;
17482;SDS011;8858;52.308;20.994;2022-10-22T13:56:38;38.13;;;26.23;;
17482;SDS011;8858;52.308;20.994;2022-10-22T13:59:10;35.33;;;26.13;;
17482;SDS011;8858;52.308;20.994;2022-10-22T14:01:45;38.23;;;25.97;;
17482;SDS011;8858;52.308;20.994;2022-10-22T14:04:13;34.20;;;25.67;;
17482;SDS011;8858;52.308;20.994;2022-10-22T14:06:42;35.63;;;26.43;;
17482;SDS011;8858;52.308;20.994;2022-10-22T14:09:12;33.87;;;25.67;;
17482;SDS011;8858;52.308;20.994;2022-10-22T14:11:44;32.83;;;25.93;;
17482;SDS011;8858;52.308;20.994;2022-10-22T14:14:15;31.93;;;25.33;;
17482;SDS011;8858;52.308;20.994;2022-10-22T14:16:46;35.87;;;28.13;;
17482;SDS011;8858;52.308;20.994;2022-10-22T14:19:15;36.77;;;27.63;;
17482;SDS011;8858;52.308;20.994;2022-10-22T14:21:44;36.87;;;26.90;;
17482;SDS011;8858;52.308;20.994;2022-10-22T14:24:18;35.60;;;26.20;;
17482;SDS011;8858;52.308;20.994;2022-10-22T14:26:47;34.57;;;26.43;;
17482;SDS011;8858;52.308;20.994;2022-10-22T14:29:16;37.17;;;27.27;;
17482;SDS011;8858;52.308;20.994;2022-10-22T14:31:45;37.33;;;27.73;;
17482;SDS011;8858;52.308;20.994;2022-10-22T14:34:14;39.93;;;29.33;;
17482;SDS011;8858;52.308;20.994;2022-10-22T14:36:43;37.03;;;27.37;;
17482;SDS011;8858;52.308;20.994;2022-10-22T14:39:14;39.43;;;29.13;;
17482;SDS011;8858;52.308;20.994;2022-10-22T14:41:43;36.27;;;28.27;;
17482;SDS011;8858;52.308;20.994;2022-10-22T14:44:13;41.53;;;31.70;;
17482;SDS011;8858;52.308;20.994;2022-10-22T14:46:41;35.77;;;27.87;;
17482;SDS011;8858;52.308;20.994;2022-10-22T14:49:12;39.00;;;29.37;;
17482;SDS011;8858;52.308;20.994;2022-10-22T14:51:42;37.53;;;27.90;;
17482;SDS011;8858;52.308;20.994;2022-10-22T14:54:10;34.70;;;27.93;;
17482;SDS011;8858;52.308;20.994;2022-10-22T14:56:38;40.60;;;29.53;;
17482;SDS011;8858;52.308;20.994;2022-10-22T14:59:07;39.70;;;29.73;;
17482;SDS011;8858;52.308;20.994;2022-10-22T15:01:36;40.63;;;29.57;;